sensor_id;sensor_type;location;lat;lon;timestamp;P1;durP1;ratioP1;P2;durP2;ratioP2
10303;SDS011;5197;48.152;8.590;2023-02-08T00:00:46;6.63;;;5.00;;
10303;SDS011;5197;48.152;8.590;2023-02-08T00:03:13;8.90;;;6.00;;
10303;SDS011;5197;48.152;8.590;2023-02-08T00:05:40;4.53;;;3.67;;
10303;SDS011;5197;48.152;8.590;2023-02-08T00:08:07;14.10;;;7.27;;
10303;SDS011;5197;48.152;8.590;2023-02-08T00:10:34;8.00;;;3.33;;
10303;SDS011;5197;48.152;8.590;2023-02-08T00:13:01;11.03;;;5.17;;
10303;SDS011;5197;48.152;8.590;2023-02-08T00:15:28;6.80;;;4.93;;
10303;SDS011;5197;48.152;8.590;2023-02-08T00:17:55;10.10;;;4.90;;
10303;SDS011;5197;48.152;8.590;2023-02-08T00:20:21;7.83;;;4.47;;
10303;SDS011;5197;48.152;8.590;2023-02-08T00:22:48;2.87;;;2.60;;
10303;SDS011;5197;48.152;8.590;2023-02-08T00:25:17;7.67;;;5.13;;
10303;SDS011;5197;48.152;8.590;2023-02-08T00:27:44;4.97;;;4.00;;
10303;SDS011;5197;48.152;8.590;2023-02-08T00:30:11;8.97;;;4.17;;
10303;SDS011;5197;48.152;8.590;2023-02-08T00:32:38;9.87;;;5.87;;
10303;SDS011;5197;48.152;8.590;2023-02-08T00:35:04;4.83;;;3.93;;
10303;SDS011;5197;48.152;8.590;2023-02-08T00:37:32;11.07;;;6.87;;
10303;SDS011;5197;48.152;8.590;2023-02-08T00:39:58;7.10;;;4.03;;
10303;SDS011;5197;48.152;8.590;2023-02-08T00:42:27;10.43;;;5.87;;
10303;SDS011;5197;48.152;8.590;2023-02-08T00:44:55;7.77;;;4.47;;
10303;SDS011;5197;48.152;8.590;2023-02-08T00:47:22;5.00;;;3.27;;
10303;SDS011;5197;48.152;8.590;2023-02-08T00:49:49;8.37;;;5.30;;
10303;SDS011;5197;48.152;8.590;2023-02-08T00:52:17;13.77;;;4.03;;
10303;SDS011;5197;48.152;8.590;2023-02-08T00:54:44;4.57;;;3.83;;
10303;SDS011;5197;48.152;8.590;2023-02-08T00:57:12;6.53;;;4.00;;
10303;SDS011;5197;48.152;8.590;2023-02-08T00:59:39;5.03;;;2.87;;
10303;SDS011;5197;48.152;8.590;2023-02-08T01:02:06;5.53;;;3.83;;
10303;SDS011;5197;48.152;8.590;2023-02-08T01:04:33;4.70;;;3.90;;
10303;SDS011;5197;48.152;8.590;2023-02-08T01:07:00;9.10;;;5.33;;
10303;SDS011;5197;48.152;8.590;2023-02-08T01:09:26;7.83;;;5.00;;
10303;SDS011;5197;48.152;8.590;2023-02-08T01:11:53;10.40;;;4.00;;
10303;SDS011;5197;48.152;8.590;2023-02-08T01:14:20;5.40;;;3.37;;
10303;SDS011;5197;48.152;8.590;2023-02-08T01:16:47;6.63;;;3.63;;
10303;SDS011;5197;48.152;8.590;2023-02-08T01:19:14;8.33;;;4.53;;
10303;SDS011;5197;48.152;8.590;2023-02-08T01:21:42;6.03;;;4.20;;
10303;SDS011;5197;48.152;8.590;2023-02-08T01:24:09;5.60;;;3.70;;
10303;SDS011;5197;48.152;8.590;2023-02-08T01:26:37;7.90;;;5.53;;
10303;SDS011;5197;48.152;8.590;2023-02-08T01:29:04;8.47;;;4.87;;
10303;SDS011;5197;48.152;8.590;2023-02-08T01:31:32;5.53;;;3.07;;
10303;SDS011;5197;48.152;8.590;2023-02-08T01:34:00;7.87;;;4.83;;
10303;SDS011;5197;48.152;8.590;2023-02-08T01:36:28;4.30;;;3.53;;
10303;SDS011;5197;48.152;8.590;2023-02-08T01:38:56;7.53;;;4.40;;
10303;SDS011;5197;48.152;8.590;2023-02-08T01:41:27;8.50;;;4.57;;
10303;SDS011;5197;48.152;8.590;2023-02-08T01:43:58;7.10;;;3.73;;
10303;SDS011;5197;48.152;8.590;2023-02-08T01:46:28;4.53;;;3.50;;
10303;SDS011;5197;48.152;8.590;2023-02-08T01:49:18;6.70;;;5.13;;
10303;SDS011;5197;48.152;8.590;2023-02-08T01:51:47;7.47;;;4.47;;
10303;SDS011;5197;48.152;8.590;2023-02-08T01:54:20;7.33;;;4.30;;
10303;SDS011;5197;48.152;8.590;2023-02-08T01:56:49;9.47;;;4.77;;
10303;SDS011;5197;48.152;8.590;2023-02-08T01:59:17;3.73;;;3.33;;
10303;SDS011;5197;48.152;8.590;2023-02-08T02:01:48;8.97;;;4.60;;
10303;SDS011;5197;48.152;8.590;2023-02-08T02:04:17;9.30;;;6.20;;
10303;SDS011;5197;48.152;8.590;2023-02-08T02:06:45;4.10;;;3.40;;
10303;SDS011;5197;48.152;8.590;2023-02-08T02:09:27;5.30;;;3.23;;
10303;SDS011;5197;48.152;8.590;2023-02-08T02:11:58;10.37;;;6.77;;
10303;SDS011;5197;48.152;8.590;2023-02-08T02:14:26;11.03;;;6.40;;
10303;SDS011;5197;48.152;8.590;2023-02-08T02:16:53;11.03;;;6.67;;
10303;SDS011;5197;48.152;8.590;2023-02-08T02:21:59;14.13;;;7.47;;
10303;SDS011;5197;48.152;8.590;2023-02-08T02:24:52;11.17;;;7.13;;
10303;SDS011;5197;48.152;8.590;2023-02-08T02:27:28;4.17;;;2.87;;
10303;SDS011;5197;48.152;8.590;2023-02-08T02:30:13;7.83;;;3.10;;
10303;SDS011;5197;48.152;8.590;2023-02-08T02:33:11;7.43;;;4.83;;
10303;SDS011;5197;48.152;8.590;2023-02-08T02:42:13;8.60;;;5.37;;
10303;SDS011;5197;48.152;8.590;2023-02-08T02:45:03;10.23;;;6.53;;
10303;SDS011;5197;48.152;8.590;2023-02-08T02:47:37;9.67;;;6.63;;
10303;SDS011;5197;48.152;8.590;2023-02-08T02:50:29;11.80;;;6.37;;
10303;SDS011;5197;48.152;8.590;2023-02-08T02:53:09;6.73;;;4.70;;
10303;SDS011;5197;48.152;8.590;2023-02-08T02:55:39;8.50;;;3.97;;
10303;SDS011;5197;48.152;8.590;2023-02-08T02:58:09;2.73;;;2.53;;
10303;SDS011;5197;48.152;8.590;2023-02-08T03:00:39;5.77;;;4.13;;
10303;SDS011;5197;48.152;8.590;2023-02-08T03:03:10;5.80;;;3.80;;
10303;SDS011;5197;48.152;8.590;2023-02-08T03:05:46;5.23;;;2.93;;
10303;SDS011;5197;48.152;8.590;2023-02-08T03:16:55;5.60;;;3.47;;
10303;SDS011;5197;48.152;8.590;2023-02-08T03:31:10;3.60;;;2.70;;
10303;SDS011;5197;48.152;8.590;2023-02-08T03:33:51;3.30;;;2.63;;
10303;SDS011;5197;48.152;8.590;2023-02-08T03:36:31;5.37;;;3.30;;
10303;SDS011;5197;48.152;8.590;2023-02-08T03:39:04;7.87;;;2.83;;
10303;SDS011;5197;48.152;8.590;2023-02-08T03:41:38;3.20;;;2.07;;
10303;SDS011;5197;48.152;8.590;2023-02-08T03:46:59;6.13;;;4.47;;
10303;SDS011;5197;48.152;8.590;2023-02-08T03:49:32;6.17;;;4.63;;
10303;SDS011;5197;48.152;8.590;2023-02-08T03:52:02;2.37;;;1.83;;
10303;SDS011;5197;48.152;8.590;2023-02-08T03:54:34;4.47;;;3.27;;
10303;SDS011;5197;48.152;8.590;2023-02-08T03:59:45;5.00;;;2.00;;
10303;SDS011;5197;48.152;8.590;2023-02-08T04:02:17;6.17;;;2.37;;
10303;SDS011;5197;48.152;8.590;2023-02-08T04:04:46;3.20;;;1.87;;
10303;SDS011;5197;48.152;8.590;2023-02-08T04:07:16;5.23;;;3.33;;
10303;SDS011;5197;48.152;8.590;2023-02-08T04:09:44;3.93;;;2.17;;
10303;SDS011;5197;48.152;8.590;2023-02-08T04:12:11;2.33;;;1.53;;
10303;SDS011;5197;48.152;8.590;2023-02-08T04:14:38;1.93;;;1.53;;
10303;SDS011;5197;48.152;8.590;2023-02-08T04:17:05;4.63;;;3.63;;
10303;SDS011;5197;48.152;8.590;2023-02-08T04:19:32;4.43;;;3.17;;
10303;SDS011;5197;48.152;8.590;2023-02-08T04:21:59;4.03;;;3.40;;
10303;SDS011;5197;48.152;8.590;2023-02-08T04:24:26;3.10;;;2.47;;
10303;SDS011;5197;48.152;8.590;2023-02-08T04:26:52;4.60;;;2.00;;
10303;SDS011;5197;48.152;8.590;2023-02-08T04:29:19;5.13;;;3.57;;
10303;SDS011;5197;48.152;8.590;2023-02-08T04:31:46;8.47;;;2.57;;
10303;SDS011;5197;48.152;8.590;2023-02-08T04:34:13;9.37;;;2.73;;
10303;SDS011;5197;48.152;8.590;2023-02-08T04:36:39;6.80;;;2.77;;
10303;SDS011;5197;48.152;8.590;2023-02-08T04:39:06;2.77;;;2.30;;
10303;SDS011;5197;48.152;8.590;2023-02-08T04:41:33;2.63;;;1.87;;
10303;SDS011;5197;48.152;8.590;2023-02-08T04:44:00;3.83;;;2.77;;
10303;SDS011;5197;48.152;8.590;2023-02-08T04:46:27;2.90;;;2.60;;
10303;SDS011;5197;48.152;8.590;2023-02-08T04:48:54;3.00;;;2.07;;
10303;SDS011;5197;48.152;8.590;2023-02-08T04:51:23;4.67;;;2.87;;
10303;SDS011;5197;48.152;8.590;2023-02-08T04:53:50;3.33;;;2.57;;
10303;SDS011;5197;48.152;8.590;2023-02-08T04:56:17;3.80;;;2.87;;
10303;SDS011;5197;48.152;8.590;2023-02-08T04:58:44;3.10;;;2.73;;
10303;SDS011;5197;48.152;8.590;2023-02-08T05:01:11;2.50;;;2.23;;
10303;SDS011;5197;48.152;8.590;2023-02-08T05:03:38;5.47;;;2.37;;
10303;SDS011;5197;48.152;8.590;2023-02-08T05:06:05;6.47;;;2.93;;
10303;SDS011;5197;48.152;8.590;2023-02-08T05:08:32;3.63;;;2.97;;
10303;SDS011;5197;48.152;8.590;2023-02-08T05:10:59;2.67;;;2.27;;
10303;SDS011;5197;48.152;8.590;2023-02-08T05:13:26;4.90;;;3.13;;
10303;SDS011;5197;48.152;8.590;2023-02-08T05:15:52;3.40;;;2.23;;
10303;SDS011;5197;48.152;8.590;2023-02-08T05:18:19;3.77;;;2.70;;
10303;SDS011;5197;48.152;8.590;2023-02-08T05:20:53;2.00;;;1.70;;
10303;SDS011;5197;48.152;8.590;2023-02-08T05:23:24;4.27;;;3.10;;
10303;SDS011;5197;48.152;8.590;2023-02-08T05:25:52;2.80;;;2.50;;
10303;SDS011;5197;48.152;8.590;2023-02-08T05:28:19;2.60;;;1.97;;
10303;SDS011;5197;48.152;8.590;2023-02-08T05:30:46;2.87;;;2.10;;
10303;SDS011;5197;48.152;8.590;2023-02-08T05:33:13;7.10;;;2.10;;
10303;SDS011;5197;48.152;8.590;2023-02-08T05:35:41;3.23;;;2.57;;
10303;SDS011;5197;48.152;8.590;2023-02-08T05:38:11;2.93;;;2.03;;
10303;SDS011;5197;48.152;8.590;2023-02-08T05:40:38;3.37;;;2.67;;
10303;SDS011;5197;48.152;8.590;2023-02-08T05:43:07;5.47;;;3.73;;
10303;SDS011;5197;48.152;8.590;2023-02-08T05:45:34;5.80;;;2.40;;
10303;SDS011;5197;48.152;8.590;2023-02-08T05:48:00;4.97;;;3.07;;
10303;SDS011;5197;48.152;8.590;2023-02-08T05:50:33;4.90;;;2.60;;
10303;SDS011;5197;48.152;8.590;2023-02-08T05:53:05;8.67;;;1.90;;
10303;SDS011;5197;48.152;8.590;2023-02-08T05:55:32;8.60;;;4.20;;
10303;SDS011;5197;48.152;8.590;2023-02-08T05:58:03;2.50;;;2.17;;
10303;SDS011;5197;48.152;8.590;2023-02-08T06:00:29;3.47;;;2.27;;
10303;SDS011;5197;48.152;8.590;2023-02-08T06:02:56;7.47;;;2.70;;
10303;SDS011;5197;48.152;8.590;2023-02-08T06:05:23;2.70;;;2.10;;
10303;SDS011;5197;48.152;8.590;2023-02-08T06:07:50;4.33;;;2.63;;
10303;SDS011;5197;48.152;8.590;2023-02-08T06:10:17;7.27;;;3.80;;
10303;SDS011;5197;48.152;8.590;2023-02-08T06:12:44;3.40;;;2.20;;
10303;SDS011;5197;48.152;8.590;2023-02-08T06:15:10;2.33;;;2.07;;
10303;SDS011;5197;48.152;8.590;2023-02-08T06:17:37;4.17;;;1.53;;
10303;SDS011;5197;48.152;8.590;2023-02-08T06:20:04;3.83;;;3.43;;
10303;SDS011;5197;48.152;8.590;2023-02-08T06:22:33;3.73;;;2.50;;
10303;SDS011;5197;48.152;8.590;2023-02-08T06:25:02;7.63;;;3.50;;
10303;SDS011;5197;48.152;8.590;2023-02-08T06:27:29;8.40;;;2.80;;
10303;SDS011;5197;48.152;8.590;2023-02-08T06:29:56;5.13;;;2.97;;
10303;SDS011;5197;48.152;8.590;2023-02-08T06:32:23;2.87;;;2.00;;
10303;SDS011;5197;48.152;8.590;2023-02-08T06:34:51;2.57;;;1.97;;
10303;SDS011;5197;48.152;8.590;2023-02-08T06:37:18;4.57;;;2.13;;
10303;SDS011;5197;48.152;8.590;2023-02-08T06:39:44;3.37;;;2.30;;
10303;SDS011;5197;48.152;8.590;2023-02-08T06:42:11;3.53;;;2.07;;
10303;SDS011;5197;48.152;8.590;2023-02-08T06:44:38;4.77;;;3.23;;
10303;SDS011;5197;48.152;8.590;2023-02-08T06:47:19;7.47;;;2.63;;
10303;SDS011;5197;48.152;8.590;2023-02-08T06:49:46;7.93;;;3.30;;
10303;SDS011;5197;48.152;8.590;2023-02-08T06:52:13;3.07;;;2.60;;
10303;SDS011;5197;48.152;8.590;2023-02-08T06:54:40;5.10;;;3.17;;
10303;SDS011;5197;48.152;8.590;2023-02-08T06:57:07;3.47;;;2.20;;
10303;SDS011;5197;48.152;8.590;2023-02-08T06:59:34;4.20;;;2.30;;
10303;SDS011;5197;48.152;8.590;2023-02-08T07:02:01;4.77;;;2.63;;
10303;SDS011;5197;48.152;8.590;2023-02-08T07:04:28;7.80;;;3.67;;
10303;SDS011;5197;48.152;8.590;2023-02-08T07:06:54;7.37;;;4.30;;
10303;SDS011;5197;48.152;8.590;2023-02-08T07:09:21;4.13;;;2.00;;
10303;SDS011;5197;48.152;8.590;2023-02-08T07:11:48;6.63;;;3.90;;
10303;SDS011;5197;48.152;8.590;2023-02-08T07:14:15;3.00;;;2.03;;
10303;SDS011;5197;48.152;8.590;2023-02-08T07:16:42;5.20;;;2.93;;
10303;SDS011;5197;48.152;8.590;2023-02-08T07:19:09;6.57;;;2.97;;
10303;SDS011;5197;48.152;8.590;2023-02-08T07:21:35;8.47;;;3.63;;
10303;SDS011;5197;48.152;8.590;2023-02-08T07:24:02;10.27;;;2.93;;
10303;SDS011;5197;48.152;8.590;2023-02-08T07:26:30;6.30;;;4.03;;
10303;SDS011;5197;48.152;8.590;2023-02-08T07:28:57;4.37;;;3.00;;
10303;SDS011;5197;48.152;8.590;2023-02-08T07:31:24;5.07;;;3.20;;
10303;SDS011;5197;48.152;8.590;2023-02-08T07:33:50;8.23;;;4.57;;
10303;SDS011;5197;48.152;8.590;2023-02-08T07:36:17;8.10;;;4.07;;
10303;SDS011;5197;48.152;8.590;2023-02-08T07:38:44;6.17;;;3.97;;
10303;SDS011;5197;48.152;8.590;2023-02-08T07:41:11;4.70;;;2.63;;
10303;SDS011;5197;48.152;8.590;2023-02-08T07:43:39;5.60;;;3.53;;
10303;SDS011;5197;48.152;8.590;2023-02-08T07:46:11;2.73;;;2.53;;
10303;SDS011;5197;48.152;8.590;2023-02-08T07:48:43;4.30;;;3.50;;
10303;SDS011;5197;48.152;8.590;2023-02-08T07:51:10;6.63;;;4.40;;
10303;SDS011;5197;48.152;8.590;2023-02-08T07:53:37;5.77;;;4.13;;
10303;SDS011;5197;48.152;8.590;2023-02-08T07:56:05;4.40;;;3.17;;
10303;SDS011;5197;48.152;8.590;2023-02-08T07:58:32;8.30;;;5.77;;
10303;SDS011;5197;48.152;8.590;2023-02-08T08:00:59;5.00;;;3.37;;
10303;SDS011;5197;48.152;8.590;2023-02-08T08:03:41;3.17;;;2.87;;
10303;SDS011;5197;48.152;8.590;2023-02-08T08:06:08;5.20;;;3.43;;
10303;SDS011;5197;48.152;8.590;2023-02-08T08:08:35;4.10;;;3.57;;
10303;SDS011;5197;48.152;8.590;2023-02-08T08:11:01;5.17;;;3.20;;
10303;SDS011;5197;48.152;8.590;2023-02-08T08:13:29;4.17;;;2.77;;
10303;SDS011;5197;48.152;8.590;2023-02-08T08:15:55;6.30;;;4.90;;
10303;SDS011;5197;48.152;8.590;2023-02-08T08:18:23;6.93;;;5.67;;
10303;SDS011;5197;48.152;8.590;2023-02-08T08:20:50;7.00;;;4.77;;
10303;SDS011;5197;48.152;8.590;2023-02-08T08:23:17;6.27;;;4.30;;
10303;SDS011;5197;48.152;8.590;2023-02-08T08:25:44;7.93;;;5.00;;
10303;SDS011;5197;48.152;8.590;2023-02-08T08:28:12;4.23;;;3.10;;
10303;SDS011;5197;48.152;8.590;2023-02-08T08:30:43;7.23;;;3.93;;
10303;SDS011;5197;48.152;8.590;2023-02-08T08:33:12;6.57;;;4.20;;
10303;SDS011;5197;48.152;8.590;2023-02-08T08:35:39;9.20;;;5.40;;
10303;SDS011;5197;48.152;8.590;2023-02-08T08:38:08;5.17;;;3.80;;
10303;SDS011;5197;48.152;8.590;2023-02-08T08:40:35;7.73;;;5.17;;
10303;SDS011;5197;48.152;8.590;2023-02-08T08:43:02;8.53;;;4.97;;
10303;SDS011;5197;48.152;8.590;2023-02-08T08:45:29;6.20;;;3.87;;
10303;SDS011;5197;48.152;8.590;2023-02-08T08:47:56;5.03;;;3.47;;
10303;SDS011;5197;48.152;8.590;2023-02-08T08:50:23;5.10;;;3.23;;
10303;SDS011;5197;48.152;8.590;2023-02-08T08:52:50;6.30;;;4.80;;
10303;SDS011;5197;48.152;8.590;2023-02-08T08:55:17;7.83;;;3.17;;
10303;SDS011;5197;48.152;8.590;2023-02-08T08:57:44;4.37;;;3.47;;
10303;SDS011;5197;48.152;8.590;2023-02-08T09:00:11;8.37;;;5.73;;
10303;SDS011;5197;48.152;8.590;2023-02-08T09:02:38;8.90;;;4.97;;
10303;SDS011;5197;48.152;8.590;2023-02-08T09:05:05;8.83;;;5.07;;
10303;SDS011;5197;48.152;8.590;2023-02-08T09:07:33;7.10;;;5.20;;
10303;SDS011;5197;48.152;8.590;2023-02-08T09:10:00;10.03;;;5.03;;
10303;SDS011;5197;48.152;8.590;2023-02-08T09:12:27;4.73;;;2.60;;
10303;SDS011;5197;48.152;8.590;2023-02-08T09:14:54;7.10;;;4.57;;
10303;SDS011;5197;48.152;8.590;2023-02-08T09:17:21;4.50;;;3.50;;
10303;SDS011;5197;48.152;8.590;2023-02-08T09:19:48;8.93;;;5.67;;
10303;SDS011;5197;48.152;8.590;2023-02-08T09:22:15;6.13;;;3.87;;
10303;SDS011;5197;48.152;8.590;2023-02-08T09:24:42;3.07;;;2.40;;
10303;SDS011;5197;48.152;8.590;2023-02-08T09:27:09;2.53;;;2.27;;
10303;SDS011;5197;48.152;8.590;2023-02-08T09:29:36;7.33;;;4.37;;
10303;SDS011;5197;48.152;8.590;2023-02-08T09:32:03;7.10;;;4.20;;
10303;SDS011;5197;48.152;8.590;2023-02-08T09:34:30;3.47;;;2.47;;
10303;SDS011;5197;48.152;8.590;2023-02-08T09:36:56;5.20;;;2.90;;
10303;SDS011;5197;48.152;8.590;2023-02-08T09:39:23;7.37;;;3.97;;
10303;SDS011;5197;48.152;8.590;2023-02-08T09:44:42;4.77;;;3.53;;
10303;SDS011;5197;48.152;8.590;2023-02-08T09:50:28;4.97;;;3.17;;
10303;SDS011;5197;48.152;8.590;2023-02-08T09:53:07;8.37;;;4.47;;
10303;SDS011;5197;48.152;8.590;2023-02-08T09:55:39;4.53;;;3.20;;
10303;SDS011;5197;48.152;8.590;2023-02-08T10:00:58;9.20;;;5.40;;
10303;SDS011;5197;48.152;8.590;2023-02-08T10:03:37;8.73;;;4.60;;
10303;SDS011;5197;48.152;8.590;2023-02-08T10:06:08;3.67;;;2.90;;
10303;SDS011;5197;48.152;8.590;2023-02-08T10:08:37;15.43;;;6.10;;
10303;SDS011;5197;48.152;8.590;2023-02-08T10:24:46;2.73;;;2.17;;
10303;SDS011;5197;48.152;8.590;2023-02-08T10:27:23;5.97;;;3.43;;
10303;SDS011;5197;48.152;8.590;2023-02-08T10:30:34;7.00;;;4.03;;
10303;SDS011;5197;48.152;8.590;2023-02-08T10:33:51;10.20;;;4.03;;
10303;SDS011;5197;48.152;8.590;2023-02-08T10:37:11;7.47;;;3.60;;
10303;SDS011;5197;48.152;8.590;2023-02-08T10:39:47;5.37;;;4.20;;
10303;SDS011;5197;48.152;8.590;2023-02-08T10:42:17;7.37;;;4.17;;
10303;SDS011;5197;48.152;8.590;2023-02-08T10:50:24;7.07;;;4.47;;
10303;SDS011;5197;48.152;8.590;2023-02-08T10:53:00;5.70;;;3.83;;
10303;SDS011;5197;48.152;8.590;2023-02-08T10:55:28;5.30;;;3.90;;
10303;SDS011;5197;48.152;8.590;2023-02-08T10:57:57;5.57;;;3.67;;
10303;SDS011;5197;48.152;8.590;2023-02-08T11:00:30;7.27;;;3.73;;
10303;SDS011;5197;48.152;8.590;2023-02-08T11:03:01;4.23;;;2.97;;
10303;SDS011;5197;48.152;8.590;2023-02-08T11:05:51;7.53;;;4.83;;
10303;SDS011;5197;48.152;8.590;2023-02-08T11:08:19;6.97;;;4.70;;
10303;SDS011;5197;48.152;8.590;2023-02-08T11:11:04;7.77;;;5.27;;
10303;SDS011;5197;48.152;8.590;2023-02-08T11:13:43;5.47;;;3.70;;
10303;SDS011;5197;48.152;8.590;2023-02-08T11:16:23;11.80;;;4.77;;
10303;SDS011;5197;48.152;8.590;2023-02-08T11:18:53;15.00;;;5.33;;
10303;SDS011;5197;48.152;8.590;2023-02-08T11:23:52;2.80;;;2.60;;
10303;SDS011;5197;48.152;8.590;2023-02-08T11:29:00;6.87;;;3.40;;
10303;SDS011;5197;48.152;8.590;2023-02-08T11:31:39;5.07;;;2.70;;
10303;SDS011;5197;48.152;8.590;2023-02-08T11:34:35;4.70;;;2.60;;
10303;SDS011;5197;48.152;8.590;2023-02-08T11:37:16;8.13;;;3.00;;
10303;SDS011;5197;48.152;8.590;2023-02-08T11:39:52;9.13;;;2.50;;
10303;SDS011;5197;48.152;8.590;2023-02-08T11:42:21;8.40;;;3.07;;
10303;SDS011;5197;48.152;8.590;2023-02-08T11:44:54;4.63;;;2.37;;
10303;SDS011;5197;48.152;8.590;2023-02-08T11:47:24;5.57;;;2.90;;
10303;SDS011;5197;48.152;8.590;2023-02-08T11:49:56;2.57;;;1.33;;
10303;SDS011;5197;48.152;8.590;2023-02-08T11:52:29;7.83;;;3.37;;
10303;SDS011;5197;48.152;8.590;2023-02-08T11:57:37;4.87;;;2.53;;
10303;SDS011;5197;48.152;8.590;2023-02-08T12:00:36;5.00;;;1.43;;
10303;SDS011;5197;48.152;8.590;2023-02-08T12:03:07;6.40;;;2.13;;
10303;SDS011;5197;48.152;8.590;2023-02-08T12:05:42;5.20;;;2.37;;
10303;SDS011;5197;48.152;8.590;2023-02-08T12:08:26;8.37;;;2.87;;
10303;SDS011;5197;48.152;8.590;2023-02-08T12:14:19;5.40;;;2.50;;
10303;SDS011;5197;48.152;8.590;2023-02-08T12:22:29;2.60;;;1.77;;
10303;SDS011;5197;48.152;8.590;2023-02-08T12:25:08;2.53;;;1.83;;
10303;SDS011;5197;48.152;8.590;2023-02-08T12:30:57;6.37;;;3.00;;
10303;SDS011;5197;48.152;8.590;2023-02-08T12:33:52;3.63;;;3.00;;
10303;SDS011;5197;48.152;8.590;2023-02-08T12:48:20;3.40;;;2.50;;
10303;SDS011;5197;48.152;8.590;2023-02-08T12:51:20;13.13;;;3.20;;
10303;SDS011;5197;48.152;8.590;2023-02-08T12:54:17;8.40;;;3.03;;
10303;SDS011;5197;48.152;8.590;2023-02-08T12:57:03;8.70;;;2.77;;
10303;SDS011;5197;48.152;8.590;2023-02-08T12:59:33;7.33;;;2.73;;
10303;SDS011;5197;48.152;8.590;2023-02-08T13:02:21;5.73;;;3.13;;
10303;SDS011;5197;48.152;8.590;2023-02-08T13:04:52;6.20;;;2.50;;
10303;SDS011;5197;48.152;8.590;2023-02-08T13:07:26;7.47;;;2.60;;
10303;SDS011;5197;48.152;8.590;2023-02-08T13:12:55;9.70;;;3.33;;
10303;SDS011;5197;48.152;8.590;2023-02-08T13:15:26;6.13;;;2.63;;
10303;SDS011;5197;48.152;8.590;2023-02-08T13:18:01;3.77;;;2.23;;
10303;SDS011;5197;48.152;8.590;2023-02-08T13:20:38;11.60;;;3.53;;
10303;SDS011;5197;48.152;8.590;2023-02-08T13:23:40;11.83;;;2.43;;
10303;SDS011;5197;48.152;8.590;2023-02-08T13:26:25;8.20;;;3.40;;
10303;SDS011;5197;48.152;8.590;2023-02-08T13:28:57;2.93;;;2.13;;
10303;SDS011;5197;48.152;8.590;2023-02-08T13:31:44;2.13;;;1.50;;
10303;SDS011;5197;48.152;8.590;2023-02-08T13:37:03;3.70;;;2.30;;
10303;SDS011;5197;48.152;8.590;2023-02-08T13:39:59;7.87;;;3.77;;
10303;SDS011;5197;48.152;8.590;2023-02-08T13:42:35;4.33;;;3.30;;
10303;SDS011;5197;48.152;8.590;2023-02-08T13:45:09;3.80;;;3.40;;
10303;SDS011;5197;48.152;8.590;2023-02-08T13:48:11;7.47;;;3.60;;
10303;SDS011;5197;48.152;8.590;2023-02-08T13:50:42;5.90;;;3.00;;
10303;SDS011;5197;48.152;8.590;2023-02-08T13:53:14;9.50;;;4.13;;
10303;SDS011;5197;48.152;8.590;2023-02-08T13:55:53;4.27;;;3.47;;
10303;SDS011;5197;48.152;8.590;2023-02-08T14:01:15;3.57;;;3.10;;
10303;SDS011;5197;48.152;8.590;2023-02-08T14:04:13;4.73;;;3.23;;
10303;SDS011;5197;48.152;8.590;2023-02-08T14:09:30;8.73;;;4.17;;
10303;SDS011;5197;48.152;8.590;2023-02-08T14:12:22;8.00;;;4.10;;
10303;SDS011;5197;48.152;8.590;2023-02-08T14:15:04;4.40;;;3.40;;
10303;SDS011;5197;48.152;8.590;2023-02-08T14:17:41;6.60;;;3.93;;
10303;SDS011;5197;48.152;8.590;2023-02-08T14:20:16;7.80;;;4.07;;
10303;SDS011;5197;48.152;8.590;2023-02-08T14:22:50;5.50;;;3.47;;
10303;SDS011;5197;48.152;8.590;2023-02-08T14:25:21;4.40;;;3.60;;
10303;SDS011;5197;48.152;8.590;2023-02-08T14:27:55;5.90;;;3.90;;
10303;SDS011;5197;48.152;8.590;2023-02-08T14:30:35;10.63;;;3.87;;
10303;SDS011;5197;48.152;8.590;2023-02-08T14:35:40;8.37;;;4.47;;
10303;SDS011;5197;48.152;8.590;2023-02-08T14:45:46;21.77;;;5.80;;
10303;SDS011;5197;48.152;8.590;2023-02-08T14:51:15;7.87;;;4.50;;
10303;SDS011;5197;48.152;8.590;2023-02-08T14:53:56;23.90;;;5.03;;
10303;SDS011;5197;48.152;8.590;2023-02-08T14:56:34;6.70;;;3.80;;
10303;SDS011;5197;48.152;8.590;2023-02-08T14:59:12;6.07;;;3.87;;
10303;SDS011;5197;48.152;8.590;2023-02-08T15:01:43;5.33;;;4.07;;
10303;SDS011;5197;48.152;8.590;2023-02-08T15:04:11;6.13;;;4.27;;
10303;SDS011;5197;48.152;8.590;2023-02-08T15:09:17;7.47;;;4.70;;
10303;SDS011;5197;48.152;8.590;2023-02-08T15:11:51;7.57;;;5.00;;
10303;SDS011;5197;48.152;8.590;2023-02-08T15:14:21;6.27;;;4.77;;
10303;SDS011;5197;48.152;8.590;2023-02-08T15:16:48;8.07;;;4.80;;
10303;SDS011;5197;48.152;8.590;2023-02-08T15:19:23;7.87;;;4.60;;
10303;SDS011;5197;48.152;8.590;2023-02-08T15:21:53;5.63;;;4.70;;
10303;SDS011;5197;48.152;8.590;2023-02-08T15:24:21;5.97;;;4.40;;
10303;SDS011;5197;48.152;8.590;2023-02-08T15:26:50;5.60;;;4.67;;
10303;SDS011;5197;48.152;8.590;2023-02-08T15:29:23;13.23;;;4.90;;
10303;SDS011;5197;48.152;8.590;2023-02-08T15:32:13;8.10;;;4.87;;
10303;SDS011;5197;48.152;8.590;2023-02-08T15:34:43;7.57;;;5.00;;
10303;SDS011;5197;48.152;8.590;2023-02-08T15:37:15;9.13;;;5.27;;
10303;SDS011;5197;48.152;8.590;2023-02-08T15:39:43;7.07;;;5.13;;
10303;SDS011;5197;48.152;8.590;2023-02-08T15:42:19;7.50;;;5.20;;
10303;SDS011;5197;48.152;8.590;2023-02-08T15:44:51;6.90;;;5.23;;
10303;SDS011;5197;48.152;8.590;2023-02-08T15:47:21;8.13;;;5.80;;
10303;SDS011;5197;48.152;8.590;2023-02-08T15:49:59;8.17;;;5.43;;
10303;SDS011;5197;48.152;8.590;2023-02-08T15:52:28;6.53;;;4.73;;
10303;SDS011;5197;48.152;8.590;2023-02-08T15:54:59;8.40;;;5.43;;
10303;SDS011;5197;48.152;8.590;2023-02-08T15:57:34;9.60;;;5.60;;
10303;SDS011;5197;48.152;8.590;2023-02-08T16:00:20;8.00;;;5.27;;
10303;SDS011;5197;48.152;8.590;2023-02-08T16:02:59;9.77;;;5.90;;
10303;SDS011;5197;48.152;8.590;2023-02-08T16:05:34;8.63;;;5.57;;
10303;SDS011;5197;48.152;8.590;2023-02-08T16:08:02;10.23;;;5.40;;
10303;SDS011;5197;48.152;8.590;2023-02-08T16:10:31;33.20;;;11.53;;
10303;SDS011;5197;48.152;8.590;2023-02-08T16:13:13;10.57;;;6.10;;
10303;SDS011;5197;48.152;8.590;2023-02-08T16:15:45;9.50;;;6.37;;
10303;SDS011;5197;48.152;8.590;2023-02-08T16:28:52;12.87;;;6.83;;
10303;SDS011;5197;48.152;8.590;2023-02-08T16:31:26;15.10;;;6.47;;
10303;SDS011;5197;48.152;8.590;2023-02-08T16:33:56;14.33;;;6.30;;
10303;SDS011;5197;48.152;8.590;2023-02-08T16:36:32;11.60;;;6.17;;
10303;SDS011;5197;48.152;8.590;2023-02-08T16:39:49;9.90;;;6.43;;
10303;SDS011;5197;48.152;8.590;2023-02-08T16:42:05;11.70;;;6.57;;
10303;SDS011;5197;48.152;8.590;2023-02-08T16:47:37;10.60;;;6.30;;
10303;SDS011;5197;48.152;8.590;2023-02-08T16:50:06;15.67;;;6.53;;
10303;SDS011;5197;48.152;8.590;2023-02-08T16:52:34;15.40;;;6.67;;
10303;SDS011;5197;48.152;8.590;2023-02-08T16:55:02;17.00;;;6.63;;
10303;SDS011;5197;48.152;8.590;2023-02-08T16:57:43;10.70;;;6.03;;
10303;SDS011;5197;48.152;8.590;2023-02-08T17:00:22;16.07;;;7.10;;
10303;SDS011;5197;48.152;8.590;2023-02-08T17:02:52;9.47;;;6.23;;
10303;SDS011;5197;48.152;8.590;2023-02-08T17:05:21;11.97;;;7.00;;
10303;SDS011;5197;48.152;8.590;2023-02-08T17:07:50;10.10;;;6.50;;
10303;SDS011;5197;48.152;8.590;2023-02-08T17:10:19;15.63;;;6.57;;
10303;SDS011;5197;48.152;8.590;2023-02-08T17:12:54;15.83;;;6.73;;
10303;SDS011;5197;48.152;8.590;2023-02-08T17:15:41;18.13;;;7.83;;
10303;SDS011;5197;48.152;8.590;2023-02-08T17:18:09;26.53;;;7.53;;
10303;SDS011;5197;48.152;8.590;2023-02-08T17:20:37;19.27;;;8.03;;
10303;SDS011;5197;48.152;8.590;2023-02-08T17:23:04;18.20;;;7.87;;
10303;SDS011;5197;48.152;8.590;2023-02-08T17:25:32;11.20;;;7.63;;
10303;SDS011;5197;48.152;8.590;2023-02-08T17:28:01;13.93;;;7.90;;
10303;SDS011;5197;48.152;8.590;2023-02-08T17:30:30;11.20;;;7.90;;
10303;SDS011;5197;48.152;8.590;2023-02-08T17:32:59;13.80;;;7.77;;
10303;SDS011;5197;48.152;8.590;2023-02-08T17:35:26;15.30;;;7.97;;
10303;SDS011;5197;48.152;8.590;2023-02-08T17:37:54;14.00;;;8.23;;
10303;SDS011;5197;48.152;8.590;2023-02-08T17:40:23;12.63;;;8.30;;
10303;SDS011;5197;48.152;8.590;2023-02-08T17:42:56;15.73;;;8.03;;